createdAt,value
2022-10-22T00:00:01.793Z,17.84
2022-10-22T00:15:01.492Z,17.69
2022-10-22T00:30:02.166Z,17.65
2022-10-22T00:45:01.797Z,17.71
2022-10-22T01:00:01.443Z,18
2022-10-22T01:15:02.092Z,18.18
2022-10-22T01:30:01.801Z,17.87
2022-10-22T01:45:01.483Z,17.74
2022-10-22T02:00:01.156Z,17.44
2022-10-22T02:15:01.785Z,17.46
2022-10-22T02:30:01.582Z,17.43
2022-10-22T02:45:01.307Z,17.08
2022-10-22T03:00:01.904Z,17.02
2022-10-22T03:15:01.621Z,17.04
2022-10-22T03:30:01.341Z,16.95
2022-10-22T03:45:01.968Z,16.69
2022-10-22T04:00:01.639Z,16.51
2022-10-22T04:15:01.293Z,16.12
2022-10-22T04:30:01.010Z,16.1
2022-10-22T04:45:01.671Z,15.93
2022-10-22T05:00:01.337Z,15.88
2022-10-22T05:15:00.988Z,15.76
2022-10-22T05:30:01.867Z,15.58
2022-10-22T05:45:01.715Z,16.08
2022-10-22T06:00:01.580Z,16.05
2022-10-22T06:15:02.334Z,16.19
2022-10-22T06:30:02.229Z,16.15
2022-10-22T07:00:02.525Z,17.7
2022-10-22T07:15:02.135Z,18.12
2022-10-22T07:30:01.848Z,18.6
2022-10-22T07:45:02.458Z,19.08
2022-10-22T08:00:02.070Z,19.89
2022-10-22T08:15:01.757Z,21.14
2022-10-22T08:30:01.531Z,22.34
2022-10-22T08:45:02.177Z,24.07
2022-10-22T09:00:01.842Z,25.55
2022-10-22T09:15:01.512Z,25.57
2022-10-22T09:30:02.197Z,25.61
2022-10-22T09:45:01.860Z,27.36
2022-10-22T10:00:01.487Z,28.02
2022-10-22T10:15:02.115Z,28.61
2022-10-22T10:30:01.848Z,27.12
2022-10-22T10:45:01.538Z,26.24
2022-10-22T11:00:02.160Z,25.26
2022-10-22T11:15:01.808Z,24.58
2022-10-22T11:30:01.518Z,24.57
2022-10-22T11:45:02.123Z,25.05
2022-10-22T12:00:01.777Z,26.06
2022-10-22T12:15:01.453Z,25.16
2022-10-22T12:30:02.087Z,25.38
2022-10-22T12:45:01.757Z,25.73
2022-10-22T13:00:01.616Z,23.91
2022-10-22T13:15:01.571Z,23.72
2022-10-22T13:30:02.284Z,22.85
2022-10-22T13:45:01.974Z,22.43
2022-10-22T14:00:01.682Z,23.24
2022-10-22T14:15:01.680Z,24.23
2022-10-22T14:30:01.703Z,23.37
2022-10-22T14:45:02.368Z,22.65
2022-10-22T15:00:02.041Z,23.85
2022-10-22T15:15:01.704Z,23.01
2022-10-22T15:45:02.046Z,22.74
2022-10-22T16:00:01.716Z,21.83
2022-10-22T16:15:02.432Z,20.74
2022-10-22T16:30:02.099Z,20.18
2022-10-22T16:45:01.854Z,19.71
2022-10-22T17:00:01.579Z,19.54
2022-10-22T17:15:02.247Z,19.4
2022-10-22T17:30:01.960Z,19.27
2022-10-22T17:45:01.646Z,19.03
2022-10-22T18:00:02.305Z,18.7
2022-10-22T18:15:01.970Z,18.57
2022-10-22T18:30:01.676Z,18.33
2022-10-22T18:45:02.380Z,17.98
2022-10-22T19:00:02.056Z,17.66
2022-10-22T19:15:01.742Z,17.33
2022-10-22T19:30:01.457Z,17.1
2022-10-22T19:45:02.089Z,16.95
2022-10-22T20:00:01.749Z,16.78
2022-10-22T20:15:01.446Z,16.74
2022-10-22T20:30:02.184Z,16.63
2022-10-22T20:45:01.896Z,16.46
2022-10-22T21:00:01.542Z,16.47
2022-10-22T21:15:02.210Z,16.51
2022-10-22T21:30:01.898Z,16.22
2022-10-22T21:45:01.727Z,16.38
2022-10-22T22:00:01.390Z,16.43
2022-10-22T22:15:02.158Z,16.44
2022-10-22T22:30:02.063Z,16.84
2022-10-22T22:45:01.752Z,17.19
2022-10-22T23:00:02.411Z,17.82
2022-10-22T23:15:02.098Z,17.77
2022-10-22T23:30:01.831Z,17.9
2022-10-22T23:45:02.484Z,17.69
